Time;durP1;ratioP1;P1;durP2;ratioP2;P2;SDS_P1;SDS_P2;PMS_P1;PMS_P2;Temp;Humidity;BMP_temperature;BMP_pressure;BME280_temperature;BME280_humidity;BME280_pressure;Samples;Min_cycle;Max_cycle;Signal;HPM_P1;HPM_P2
2023/06/01 00:00:21;;;;;;;;;;;;;;;21.85;38.32;101500.94;4128666;28;20435;-58
2023/06/01 00:02:22;;;;;;;;;;;;;;;21.86;38.49;101502.66;4162451;28;19969;-57
2023/06/01 00:04:24;;;;;;;;;;;;;;;21.86;38.50;101502.66;4114269;28;19926;-57
2023/06/01 00:06:28;;;;;;;;;;;;;;;21.85;38.37;101507.13;4165961;28;19925;-57
2023/06/01 00:08:30;;;;;;;;;;;;;;;21.85;38.62;101506.28;4121888;28;20284;-57
2023/06/01 00:10:31;;;;;;;;;;;;;;;21.84;38.38;101504.56;4121785;28;20024;-58
2023/06/01 00:12:33;;;;;;;;;;;;;;;21.83;38.20;101506.38;4169728;28;19965;-57
2023/06/01 00:14:35;;;;;;;;;;;;;;;21.82;38.53;101503.81;4115159;28;19926;-57
2023/06/01 00:16:37;;;;;;;;;;;;;;;21.81;38.42;101513.69;4159921;28;20535;-58
2023/06/01 00:18:38;;;;;;;;;;;;;;;21.80;38.49;101503.94;4131431;28;19948;-57
2023/06/01 00:20:45;;;;;;;;;;;;;;;21.80;38.47;101501.25;4121745;28;20318;-57
2023/06/01 00:22:48;;;;;;;;;;;;;;;21.79;38.55;101506.72;4171795;28;20300;-57
2023/06/01 00:24:50;;;;;;;;;;;;;;;21.78;38.48;101496.97;4114656;28;20303;-58
2023/06/01 00:26:51;;;;;;;;;;;;;;;21.76;38.68;101489.03;4155785;28;19951;-58
2023/06/01 00:28:53;;;;;;;;;;;;;;;21.75;38.70;101491.84;4134974;28;19937;-58
2023/06/01 00:30:54;;;;;;;;;;;;;;;21.76;38.61;101499.75;4120753;28;19980;-57
2023/06/01 00:32:56;;;;;;;;;;;;;;;21.75;38.68;101497.19;4170591;28;19926;-58
2023/06/01 00:34:58;;;;;;;;;;;;;;;21.75;38.80;101491.84;4215092;28;19927;-58
2023/06/01 00:36:59;;;;;;;;;;;;;;;21.74;39.04;101490.13;4175418;28;19971;-57
2023/06/01 00:39:04;;;;;;;;;;;;;;;21.74;39.05;101495.47;4194699;28;19928;-58
2023/06/01 00:41:05;;;;;;;;;;;;;;;21.73;38.81;101499.13;4190257;28;19924;-57
2023/06/01 00:43:07;;;;;;;;;;;;;;;21.72;38.93;101500.94;4140807;28;20376;-57
2023/06/01 00:45:09;;;;;;;;;;;;;;;21.70;38.89;101493.03;4197248;28;19935;-57
2023/06/01 00:47:11;;;;;;;;;;;;;;;21.70;39.08;101501.06;4169776;28;19927;-57
2023/06/01 00:49:12;;;;;;;;;;;;;;;21.70;39.06;101502.84;4144619;28;20371;-57
2023/06/01 00:51:15;;;;;;;;;;;;;;;21.69;39.10;101496.66;4114002;28;19932;-58
2023/06/01 00:53:17;;;;;;;;;;;;;;;21.68;39.11;101502.13;4176208;28;19960;-57
2023/06/01 00:55:20;;;;;;;;;;;;;;;21.67;39.26;101495.91;4112513;28;19957;-58
2023/06/01 00:57:26;;;;;;;;;;;;;;;21.68;39.36;101494.09;4133299;28;19927;-57
2023/06/01 00:59:27;;;;;;;;;;;;;;;21.66;38.95;101499.53;4153101;28;20032;-58
2023/06/01 01:01:29;;;;;;;;;;;;;;;21.64;38.94;101496.13;4113683;28;19966;-58
2023/06/01 01:03:34;;;;;;;;;;;;;;;21.65;39.54;101488.94;4174549;28;19924;-57
2023/06/01 01:05:37;;;;;;;;;;;;;;;21.65;39.47;101492.50;4112265;28;20219;-58
2023/06/01 01:07:57;;;;;;;;;;;;;;;21.65;39.27;101503.22;4130216;28;19926;-58
2023/06/01 01:10:08;;;;;;;;;;;;;;;21.64;39.29;101505.97;4145408;28;19926;-57
2023/06/01 01:12:13;;;;;;;;;;;;;;;21.62;39.27;101502.56;4120134;28;19937;-58
2023/06/01 01:14:19;;;;;;;;;;;;;;;21.62;39.66;101506.09;4169774;28;19924;-57
2023/06/01 01:16:45;;;;;;;;;;;;;;;21.61;39.49;101498.16;4111923;28;19930;-58
2023/06/01 01:18:54;;;;;;;;;;;;;;;21.59;39.58;101502.78;4162624;28;19925;-57
2023/06/01 01:20:58;;;;;;;;;;;;;;;21.60;39.64;101504.47;4120241;28;19926;-57
2023/06/01 01:23:00;;;;;;;;;;;;;;;21.58;39.58;101507.28;4143708;28;20395;-57
2023/06/01 01:25:05;;;;;;;;;;;;;;;21.60;39.87;101507.16;4144926;28;19972;-57
2023/06/01 01:27:08;;;;;;;;;;;;;;;21.57;39.67;101508.22;4136361;28;19933;-56
2023/06/01 01:29:11;;;;;;;;;;;;;;;21.56;39.54;101506.47;4164853;28;20270;-57
2023/06/01 01:31:22;;;;;;;;;;;;;;;21.56;39.88;101506.47;4118858;28;20342;-60
2023/06/01 01:33:24;;;;;;;;;;;;;;;21.54;39.74;101503.06;4125541;28;19930;-57
2023/06/01 01:35:26;;;;;;;;;;;;;;;21.55;39.70;101508.28;4121120;28;19926;-58
2023/06/01 01:37:27;;;;;;;;;;;;;;;21.53;40.15;101507.56;4112590;28;20402;-58
2023/06/01 01:39:29;;;;;;;;;;;;;;;21.53;39.93;101501.34;4137608;28;19927;-57
2023/06/01 01:41:36;;;;;;;;;;;;;;;21.53;40.09;101501.34;4189386;28;20398;-58
2023/06/01 01:43:42;;;;;;;;;;;;;;;21.52;39.75;101505.84;4185123;28;19928;-57
2023/06/01 01:45:46;;;;;;;;;;;;;;;21.52;40.25;101508.50;4144653;28;19924;-57
2023/06/01 01:47:48;;;;;;;;;;;;;;;21.50;40.16;101513.09;4196808;28;20008;-57
2023/06/01 01:49:53;;;;;;;;;;;;;;;21.51;40.33;101516.66;4144978;28;20283;-57
2023/06/01 01:52:07;;;;;;;;;;;;;;;21.50;40.25;101512.25;4172538;28;19926;-56
2023/06/01 01:54:10;;;;;;;;;;;;;;;21.49;39.92;101518.56;4128027;28;19930;-57
2023/06/01 01:56:13;;;;;;;;;;;;;;;21.48;40.30;101514.19;4157739;28;19926;-57
2023/06/01 01:58:15;;;;;;;;;;;;;;;21.48;40.28;101509.72;4112799;28;19934;-58
2023/06/01 02:00:17;;;;;;;;;;;;;;;21.47;40.28;101509.78;4168193;28;20022;-58
2023/06/01 02:02:19;;;;;;;;;;;;;;;21.46;40.09;101505.41;4119111;28;19980;-58
2023/06/01 02:04:20;;;;;;;;;;;;;;;21.47;40.51;101504.44;4121517;28;20487;-57
2023/06/01 02:06:22;;;;;;;;;;;;;;;21.46;40.25;101508.06;4164519;28;19946;-58
2023/06/01 02:08:23;;;;;;;;;;;;;;;21.46;40.41;101508.94;4112786;28;19930;-57
2023/06/01 02:10:25;;;;;;;;;;;;;;;21.46;40.52;101505.41;4159733;28;20396;-57
2023/06/01 02:12:27;;;;;;;;;;;;;;;21.43;40.40;101498.44;4128017;28;20311;-58
2023/06/01 02:14:28;;;;;;;;;;;;;;;21.43;40.27;101502.94;4119079;28;19931;-58
2023/06/01 02:16:30;;;;;;;;;;;;;;;21.43;40.42;101500.28;4168062;28;20331;-58
2023/06/01 02:18:32;;;;;;;;;;;;;;;21.43;40.54;101500.28;4112726;28;19926;-57
2023/06/01 02:20:34;;;;;;;;;;;;;;;21.42;40.22;101498.56;4150518;28;20306;-57
2023/06/01 02:22:38;;;;;;;;;;;;;;;21.41;40.44;101500.38;4134595;28;20276;-58
2023/06/01 02:24:39;;;;;;;;;;;;;;;21.41;40.56;101495.03;4119160;28;20323;-58
2023/06/01 02:26:42;;;;;;;;;;;;;;;21.41;40.47;101495.03;4157191;28;20386;-57
2023/06/01 02:28:44;;;;;;;;;;;;;;;21.41;40.56;101494.16;4196141;28;20453;-58
2023/06/01 02:30:45;;;;;;;;;;;;;;;21.39;40.62;101495.13;4165182;28;19976;-57
2023/06/01 02:32:48;;;;;;;;;;;;;;;21.39;40.36;101488.94;4169213;28;19925;-60
2023/06/01 02:34:50;;;;;;;;;;;;;;;21.39;40.36;101486.25;4152232;28;19926;-57
2023/06/01 02:36:55;;;;;;;;;;;;;;;21.37;40.42;101493.50;4140599;28;19926;-60
2023/06/01 02:38:57;;;;;;;;;;;;;;;21.37;40.44;101496.19;4145231;28;19926;-59
2023/06/01 02:40:58;;;;;;;;;;;;;;;21.37;40.81;101497.06;4142018;28;19924;-57
2023/06/01 02:43:00;;;;;;;;;;;;;;;21.36;40.72;101492.66;4150320;28;19979;-56
2023/06/01 02:45:04;;;;;;;;;;;;;;;21.36;40.55;101490.00;4115705;28;19952;-59
2023/06/01 02:47:06;;;;;;;;;;;;;;;21.36;40.59;101494.47;4135682;28;20319;-59
2023/06/01 02:49:07;;;;;;;;;;;;;;;21.35;40.83;101490.97;4197796;28;19925;-59
2023/06/01 02:51:09;;;;;;;;;;;;;;;21.35;40.63;101492.75;4178959;28;19932;-59
2023/06/01 02:53:10;;;;;;;;;;;;;;;21.34;40.88;101491.06;4156335;28;19970;-59
2023/06/01 02:55:12;;;;;;;;;;;;;;;21.34;40.91;101488.38;4199279;28;19932;-59
2023/06/01 02:57:13;;;;;;;;;;;;;;;21.34;40.85;101493.75;4139745;28;20285;-59
2023/06/01 02:59:15;;;;;;;;;;;;;;;21.34;40.81;101488.38;4194387;28;20019;-60
2023/06/01 03:01:16;;;;;;;;;;;;;;;21.34;40.54;101496.41;4187727;28;19931;-59
2023/06/01 03:03:18;;;;;;;;;;;;;;;21.32;40.84;101492.97;4147136;28;19924;-59
2023/06/01 03:05:21;;;;;;;;;;;;;;;21.32;40.99;101490.31;4199187;28;19931;-58
2023/06/01 03:07:22;;;;;;;;;;;;;;;21.31;41.00;101491.25;4147816;28;19934;-59
2023/06/01 03:09:24;;;;;;;;;;;;;;;21.30;40.86;101495.78;4162364;28;19930;-59
2023/06/01 03:11:26;;;;;;;;;;;;;;;21.30;41.15;101493.09;4121691;28;19964;-59
2023/06/01 03:13:28;;;;;;;;;;;;;;;21.30;40.73;101492.22;4170710;28;19937;-59
2023/06/01 03:15:29;;;;;;;;;;;;;;;21.29;40.97;101493.19;4114721;28;19930;-59
2023/06/01 03:17:31;;;;;;;;;;;;;;;21.28;41.07;101489.66;4154696;28;19931;-60
2023/06/01 03:19:33;;;;;;;;;;;;;;;21.28;41.20;101491.50;4135509;28;19961;-59
2023/06/01 03:21:35;;;;;;;;;;;;;;;21.27;40.94;101495.97;4121476;28;19926;-59
2023/06/01 03:23:37;;;;;;;;;;;;;;;21.27;40.80;101492.44;4171517;28;19933;-59
2023/06/01 03:25:38;;;;;;;;;;;;;;;21.27;41.13;101495.97;4114620;28;20123;-59
2023/06/01 03:27:40;;;;;;;;;;;;;;;21.28;41.01;101491.50;4146713;28;19931;-59
2023/06/01 03:29:42;;;;;;;;;;;;;;;21.26;40.89;101491.56;4143421;28;19930;-59
2023/06/01 03:31:44;;;;;;;;;;;;;;;21.15;41.00;101483.44;4120047;28;19975;-59
2023/06/01 03:33:45;;;;;;;;;;;;;;;21.25;40.81;101492.53;4166512;28;19925;-59
2023/06/01 03:35:49;;;;;;;;;;;;;;;21.25;41.15;101489.84;4113900;28;19926;-61
2023/06/01 03:37:51;;;;;;;;;;;;;;;21.24;41.12;101496.19;4132251;28;19979;-59
2023/06/01 03:39:52;;;;;;;;;;;;;;;21.23;40.93;101494.47;4162008;28;20394;-59
2023/06/01 03:41:54;;;;;;;;;;;;;;;21.22;41.05;101492.75;4197539;28;19956;-59
2023/06/01 03:43:55;;;;;;;;;;;;;;;21.21;40.98;101491.88;4151554;28;20310;-58
2023/06/01 03:45:57;;;;;;;;;;;;;;;21.21;41.23;101502.59;4113814;28;20436;-59
2023/06/01 03:47:59;;;;;;;;;;;;;;;21.21;40.92;101499.91;4131074;28;20450;-58
2023/06/01 03:50:01;;;;;;;;;;;;;;;21.21;41.02;101496.41;4159437;28;19934;-59
2023/06/01 03:52:02;;;;;;;;;;;;;;;21.20;41.10;101494.69;4114401;28;20410;-57
2023/06/01 03:54:04;;;;;;;;;;;;;;;21.20;41.27;101500.03;4170468;28;19928;-58
2023/06/01 03:56:06;;;;;;;;;;;;;;;21.19;40.93;101493.84;4119864;28;19926;-57
2023/06/01 03:58:07;;;;;;;;;;;;;;;21.20;40.96;101500.03;4123000;28;19926;-58
2023/06/01 04:00:18;;;;;;;;;;;;;;;21.18;41.11;101500.13;4168060;28;20029;-59
2023/06/01 04:02:21;;;;;;;;;;;;;;;21.18;41.36;101493.91;4114100;28;19926;-60
2023/06/01 04:04:25;;;;;;;;;;;;;;;21.18;40.98;101494.78;4168910;28;20007;-59
2023/06/01 04:06:29;;;;;;;;;;;;;;;21.19;41.33;101503.66;4119414;28;19930;-59
2023/06/01 04:08:30;;;;;;;;;;;;;;;21.17;41.22;101501.09;4124648;28;19930;-59
2023/06/01 04:10:32;;;;;;;;;;;;;;;21.18;41.37;101505.50;4158675;28;19924;-59
2023/06/01 04:12:33;;;;;;;;;;;;;;;21.17;41.17;101503.78;4198150;28;19929;-60
2023/06/01 04:14:35;;;;;;;;;;;;;;;21.18;41.34;101504.63;4148879;28;19926;-59
2023/06/01 04:16:37;;;;;;;;;;;;;;;21.16;41.19;101506.56;4182873;28;19925;-59
2023/06/01 04:18:38;;;;;;;;;;;;;;;21.16;41.19;101512.75;4190730;28;19932;-59
2023/06/01 04:20:40;;;;;;;;;;;;;;;21.15;41.10;101513.72;4141131;28;20297;-59
2023/06/01 04:22:42;;;;;;;;;;;;;;;21.16;41.42;101506.56;4198008;28;19959;-59
2023/06/01 04:24:43;;;;;;;;;;;;;;;21.15;41.44;101504.84;4167610;28;19969;-61
2023/06/01 04:26:45;;;;;;;;;;;;;;;21.14;41.49;101512.03;4131109;28;19933;-59
2023/06/01 04:28:48;;;;;;;;;;;;;;;21.14;41.25;101504.00;4120567;28;19968;-59
2023/06/01 04:30:51;;;;;;;;;;;;;;;21.15;41.51;101510.19;4170288;28;19932;-59
2023/06/01 04:32:53;;;;;;;;;;;;;;;21.14;41.25;101519.16;4113960;28;19926;-60
2023/06/01 04:34:56;;;;;;;;;;;;;;;21.14;41.50;101521.84;4155634;28;20023;-59
2023/06/01 04:36:59;;;;;;;;;;;;;;;21.13;41.30;101515.66;4140465;28;19988;-59
2023/06/01 04:39:07;;;;;;;;;;;;;;;21.13;41.52;101515.66;4167031;28;20030;-59
2023/06/01 04:41:10;;;;;;;;;;;;;;;21.13;41.24;101520.13;4140839;28;19932;-59
2023/06/01 04:43:12;;;;;;;;;;;;;;;;;;4197850;28;20421;-58
2023/06/01 04:45:15;;;;;;;;;;;;;;;21.12;41.13;101521.97;4164394;28;20514;-58
2023/06/01 04:47:17;;;;;;;;;;;;;;;21.12;41.39;101521.09;4167296;28;19924;-59
2023/06/01 04:49:28;;;;;;;;;;;;;;;;;;4190511;28;19924;-59
2023/06/01 04:51:30;;;;;;;;;;;;;;;21.12;41.26;101529.97;4140640;28;19924;-58
2023/06/01 04:53:33;;;;;;;;;;;;;;;21.10;41.54;101521.19;4113481;28;20001;-58
2023/06/01 04:55:35;;;;;;;;;;;;;;;21.09;41.27;101532.84;4145681;28;19939;-58
2023/06/01 04:57:36;;;;;;;;;;;;;;;21.09;41.38;101530.19;4142368;28;20017;-58
2023/06/01 04:59:39;;;;;;;;;;;;;;;21.09;41.38;101522.16;4117785;28;20036;-59
2023/06/01 05:01:41;;;;;;;;;;;;;;;21.09;41.41;101527.50;4170666;28;19956;-57
2023/06/01 05:03:43;;;;;;;;;;;;;;;21.09;41.60;101530.19;4113461;28;19933;-58
2023/06/01 05:05:45;;;;;;;;;;;;;;;21.09;41.59;101529.34;4138493;28;20015;-58
2023/06/01 05:07:46;;;;;;;;;;;;;;;21.08;41.53;101525.78;4149227;28;19933;-59
2023/06/01 05:09:48;;;;;;;;;;;;;;;21.08;41.42;101531.13;4113326;28;20153;-58
2023/06/01 05:11:49;;;;;;;;;;;;;;;21.09;41.51;101535.53;4134096;28;19933;-58
2023/06/01 05:13:52;;;;;;;;;;;;;;;21.09;41.66;101538.19;4113102;28;19962;-59
2023/06/01 05:15:55;;;;;;;;;;;;;;;21.09;41.49;101527.50;4130126;28;20135;-59
2023/06/01 05:17:57;;;;;;;;;;;;;;;21.09;41.61;101532.84;4156667;28;19980;-59
2023/06/01 05:19:58;;;;;;;;;;;;;;;21.09;41.51;101534.69;4113232;28;19926;-58
2023/06/01 05:22:00;;;;;;;;;;;;;;;21.09;41.29;101542.69;4169178;28;20011;-58
2023/06/01 05:24:01;;;;;;;;;;;;;;;21.07;41.52;101545.50;4119555;28;19926;-59
2023/06/01 05:26:03;;;;;;;;;;;;;;;21.06;41.36;101541.94;4121968;28;19975;-57
2023/06/01 05:28:05;;;;;;;;;;;;;;;21.05;41.73;101540.22;4164818;28;19930;-58
2023/06/01 05:30:07;;;;;;;;;;;;;;;21.04;41.77;101537.66;4113031;28;19926;-58
2023/06/01 05:32:08;;;;;;;;;;;;;;;21.04;41.69;101543.00;4160481;28;19924;-58
2023/06/01 05:34:10;;;;;;;;;;;;;;;21.03;41.48;101541.28;4159417;28;19960;-58
2023/06/01 05:36:11;;;;;;;;;;;;;;;21.03;41.33;101546.63;4181630;28;19924;-59
2023/06/01 05:38:13;;;;;;;;;;;;;;;21.02;41.75;101542.25;4189176;28;19931;-59
2023/06/01 05:40:14;;;;;;;;;;;;;;;21.00;41.88;101545.03;4197055;28;19998;-59
2023/06/01 05:42:16;;;;;;;;;;;;;;;21.01;41.72;101544.06;4157919;28;19960;-59
2023/06/01 05:44:18;;;;;;;;;;;;;;;21.00;41.65;101549.53;4172530;28;19931;-59
2023/06/01 05:46:19;;;;;;;;;;;;;;;21.00;41.76;101555.72;4188761;28;19925;-59
2023/06/01 05:48:21;;;;;;;;;;;;;;;21.00;41.66;101552.22;4139522;28;19967;-59
2023/06/01 05:50:23;;;;;;;;;;;;;;;21.00;41.94;101549.53;4195532;28;20404;-59
2023/06/01 05:52:24;;;;;;;;;;;;;;;21.00;41.69;101546.84;4176245;28;19933;-59
2023/06/01 05:54:26;;;;;;;;;;;;;;;21.01;41.90;101546.75;4145648;28;19970;-59
2023/06/01 05:56:27;;;;;;;;;;;;;;;21.01;41.53;101549.41;4113573;28;19926;-60
2023/06/01 05:58:29;;;;;;;;;;;;;;;20.99;41.87;101548.66;4173171;28;19986;-60
2023/06/01 06:00:34;;;;;;;;;;;;;;;21.00;41.46;101554.88;4112766;28;20291;-59
2023/06/01 06:02:36;;;;;;;;;;;;;;;21.01;41.76;101560.13;4136246;28;19931;-59
2023/06/01 06:04:38;;;;;;;;;;;;;;;21.02;41.86;101560.97;4151635;28;20375;-59
2023/06/01 06:06:39;;;;;;;;;;;;;;;21.01;41.76;101557.44;4114423;28;19930;-59
2023/06/01 06:08:41;;;;;;;;;;;;;;;21.01;41.67;101557.44;4177648;28;20027;-59
2023/06/01 06:10:43;;;;;;;;;;;;;;;21.01;41.74;101562.78;4114861;28;20021;-60
2023/06/01 06:12:45;;;;;;;;;;;;;;;21.00;41.78;101562.91;4113877;28;20032;-60
2023/06/01 06:14:46;;;;;;;;;;;;;;;20.98;41.70;101554.97;4151946;28;19925;-59
2023/06/01 06:16:48;;;;;;;;;;;;;;;20.98;41.96;101559.47;4199005;28;19946;-59
2023/06/01 06:18:50;;;;;;;;;;;;;;;20.97;41.89;101555.06;4145982;28;20284;-59
2023/06/01 06:20:51;;;;;;;;;;;;;;;20.97;41.87;101558.59;4190617;28;19995;-59
2023/06/01 06:22:53;;;;;;;;;;;;;;;20.96;41.80;101543.53;4191462;28;19924;-57
2023/06/01 06:24:54;;;;;;;;;;;;;;;20.96;41.80;101559.56;4132605;28;19928;-58
2023/06/01 06:26:56;;;;;;;;;;;;;;;20.97;41.78;101557.75;4147217;28;20009;-58
2023/06/01 06:28:57;;;;;;;;;;;;;;;20.96;41.84;101561.38;4159413;28;20036;-58
2023/06/01 06:30:59;;;;;;;;;;;;;;;20.95;41.67;101549.84;4133402;28;20123;-58
2023/06/01 06:33:01;;;;;;;;;;;;;;;20.95;41.78;101555.19;4122168;28;19928;-58
2023/06/01 06:35:03;;;;;;;;;;;;;;;20.96;41.92;101556.03;4132613;28;20421;-57
2023/06/01 06:37:05;;;;;;;;;;;;;;;20.97;41.76;101553.25;4114468;28;19930;-57
2023/06/01 06:39:07;;;;;;;;;;;;;;;20.97;41.58;101555.91;4139727;28;19926;-57
2023/06/01 06:41:08;;;;;;;;;;;;;;;20.97;41.74;101569.28;4172856;28;19971;-57
2023/06/01 06:43:10;;;;;;;;;;;;;;;20.96;41.89;101556.91;4192265;28;20340;-58
2023/06/01 06:45:11;;;;;;;;;;;;;;;20.96;41.90;101566.72;4142344;28;20052;-57
2023/06/01 06:47:15;;;;;;;;;;;;;;;20.95;42.09;101573.91;4198317;28;19931;-57
2023/06/01 06:49:18;;;;;;;;;;;;;;;20.95;41.87;101563.19;4170414;28;19932;-58
2023/06/01 06:51:21;;;;;;;;;;;;;;;20.94;41.76;101564.16;4166007;28;19924;-58
2023/06/01 06:53:22;;;;;;;;;;;;;;;20.95;41.85;101567.69;4124695;28;20296;-58
2023/06/01 06:55:24;;;;;;;;;;;;;;;20.96;43.02;101558.69;4174865;28;19959;-58
2023/06/01 06:57:25;;;;;;;;;;;;;;;20.98;43.61;101556.78;4113862;28;20302;-57
2023/06/01 06:59:27;;;;;;;;;;;;;;;20.98;43.20;101568.31;4136318;28;20321;-58
2023/06/01 07:01:28;;;;;;;;;;;;;;;20.99;43.48;101562.03;4156672;28;19926;-58
2023/06/01 07:03:33;;;;;;;;;;;;;;;20.99;43.73;101559.34;4114899;28;19933;-58
2023/06/01 07:05:35;;;;;;;;;;;;;;;21.01;43.86;101561.91;4176730;28;19932;-58
2023/06/01 07:07:37;;;;;;;;;;;;;;;21.02;43.63;101582.34;4114464;28;19961;-58
2023/06/01 07:09:39;;;;;;;;;;;;;;;21.05;43.42;101566.13;4113928;28;19927;-64
2023/06/01 07:11:42;;;;;;;;;;;;;;;21.05;43.75;101566.13;4114390;28;19926;-66
2023/06/01 07:13:44;;;;;;;;;;;;;;;21.05;43.42;101564.28;4114471;28;19934;-65
2023/06/01 07:15:46;;;;;;;;;;;;;;;21.09;43.87;101561.44;4114883;28;20435;-64
2023/06/01 07:17:47;;;;;;;;;;;;;;;21.11;43.82;101570.22;4112535;28;19948;-64
2023/06/01 07:19:49;;;;;;;;;;;;;;;21.12;43.60;101567.44;4114992;28;19984;-64
2023/06/01 07:21:51;;;;;;;;;;;;;;;21.14;43.69;101561.97;4114973;28;19957;-64
2023/06/01 07:23:52;;;;;;;;;;;;;;;21.14;43.68;101562.84;4145779;28;19969;-65
2023/06/01 07:25:55;;;;;;;;;;;;;;;21.17;43.58;101569.81;4114704;28;19932;-64
2023/06/01 07:27:58;;;;;;;;;;;;;;;21.16;43.54;101560.91;4113463;28;20373;-64
2023/06/01 07:30:00;;;;;;;;;;;;;;;21.17;43.41;101569.81;4114974;28;19926;-64
2023/06/01 07:32:01;;;;;;;;;;;;;;;21.17;43.39;101567.97;4114851;28;20299;-65
2023/06/01 07:34:03;;;;;;;;;;;;;;;21.18;43.47;101563.47;4120828;28;20341;-65
2023/06/01 07:36:06;;;;;;;;;;;;;;;21.16;43.77;101563.56;4130777;28;19929;-64
2023/06/01 07:38:09;;;;;;;;;;;;;;;21.19;43.52;101568.72;4125526;28;20032;-65
2023/06/01 07:40:11;;;;;;;;;;;;;;;21.20;43.56;101564.22;4114418;28;20307;-64
2023/06/01 07:42:13;;;;;;;;;;;;;;;21.23;43.44;101577.41;4114581;28;19926;-64
2023/06/01 07:44:18;;;;;;;;;;;;;;;21.23;43.43;101572.06;4114557;28;19926;-65
2023/06/01 07:46:19;;;;;;;;;;;;;;;21.21;43.25;101577.50;4114493;28;19944;-64
2023/06/01 07:48:21;;;;;;;;;;;;;;;21.23;43.37;101574.75;4113409;28;19930;-64
2023/06/01 07:50:28;;;;;;;;;;;;;;;21.23;43.79;101577.41;4114618;28;19930;-64
2023/06/01 07:52:29;;;;;;;;;;;;;;;21.23;43.22;101578.25;4114264;28;19926;-64
2023/06/01 07:54:34;;;;;;;;;;;;;;;21.22;43.49;101584.56;4113882;28;19930;-64
2023/06/01 07:56:35;;;;;;;;;;;;;;;21.22;43.67;101571.19;4114214;28;19931;-63
2023/06/01 07:58:37;;;;;;;;;;;;;;;21.21;43.48;101566.78;4113993;28;19940;-64
2023/06/01 08:00:39;;;;;;;;;;;;;;;21.23;43.65;101577.41;4114105;28;19972;-65
2023/06/01 08:02:41;;;;;;;;;;;;;;;21.23;43.57;101570.22;4114550;28;19980;-65
2023/06/01 08:04:44;;;;;;;;;;;;;;;21.23;43.62;101572.91;4114437;28;19927;-65
2023/06/01 08:06:45;;;;;;;;;;;;;;;21.22;43.41;101571.19;4113662;28;19958;-65
2023/06/01 08:08:49;;;;;;;;;;;;;;;21.25;43.58;101574.63;4113621;28;20013;-65
2023/06/01 08:10:51;;;;;;;;;;;;;;;21.25;43.83;101579.97;4114276;28;20472;-65
2023/06/01 08:12:57;;;;;;;;;;;;;;;21.26;43.34;101579.03;4114060;28;19926;-65
2023/06/01 08:14:58;;;;;;;;;;;;;;;21.26;43.59;101584.38;4114222;28;19926;-65
2023/06/01 08:17:03;;;;;;;;;;;;;;;21.15;43.68;101555.66;4113662;28;19926;-65
2023/06/01 08:19:05;;;;;;;;;;;;;;;21.27;43.62;101572.72;4114095;28;20159;-64
2023/06/01 08:21:08;;;;;;;;;;;;;;;21.28;43.55;101577.94;4113808;28;20017;-65
2023/06/01 08:23:10;;;;;;;;;;;;;;;21.28;43.62;101575.28;4113666;28;19933;-65
2023/06/01 08:25:12;;;;;;;;;;;;;;;21.29;43.33;101574.31;4114016;28;19930;-66
2023/06/01 08:27:18;;;;;;;;;;;;;;;21.29;43.66;101584.16;4113195;28;20352;-65
2023/06/01 08:29:20;;;;;;;;;;;;;;;21.28;43.36;101572.59;4113333;28;19926;-66
2023/06/01 08:31:41;;;;;;;;;;;;;;;21.28;43.36;101579.78;4113890;28;19930;-65
2023/06/01 08:33:43;;;;;;;;;;;;;;;21.29;43.74;101578.78;4117311;28;20379;-65
2023/06/01 08:35:44;;;;;;;;;;;;;;;21.30;43.78;101577.84;4130146;28;19926;-65
2023/06/01 08:37:49;;;;;;;;;;;;;;;21.31;43.52;101575.09;4126697;28;19925;-65
2023/06/01 08:39:51;;;;;;;;;;;;;;;21.29;43.47;101573.44;4114037;28;19926;-64
2023/06/01 08:41:55;;;;;;;;;;;;;;;21.31;43.53;101584.91;4114020;28;19926;-65
2023/06/01 08:44:06;;;;;;;;;;;;;;;21.31;43.58;101571.53;4112768;28;19927;-65
2023/06/01 08:46:07;;;;;;;;;;;;;;;21.31;43.40;101572.41;4113746;28;19933;-64
2023/06/01 08:48:14;;;;;;;;;;;;;;;21.31;43.77;101571.53;4112654;28;19926;-64
2023/06/01 08:50:16;;;;;;;;;;;;;;;21.33;43.65;101574.97;4113961;28;19930;-65
2023/06/01 08:52:20;;;;;;;;;;;;;;;21.33;43.26;101565.13;4113327;28;19927;-65
2023/06/01 08:54:21;;;;;;;;;;;;;;;21.33;43.40;101572.28;4113658;28;19927;-65
2023/06/01 08:56:23;;;;;;;;;;;;;;;21.33;43.39;101567.78;4113281;28;19933;-66
2023/06/01 08:58:25;;;;;;;;;;;;;;;21.35;43.58;101565.00;4112094;28;19995;-66
2023/06/01 09:00:27;;;;;;;;;;;;;;;21.35;43.36;101568.56;4113666;28;19926;-65
2023/06/01 09:02:29;;;;;;;;;;;;;;;21.43;44.24;101560.00;4111173;28;19968;-67
2023/06/01 09:04:33;;;;;;;;;;;;;;;21.54;43.54;101554.78;4117793;28;20328;-63
2023/06/01 09:06:36;;;;;;;;;;;;;;;21.65;43.61;101569.25;4124259;28;20013;-66
2023/06/01 09:08:38;;;;;;;;;;;;;;;21.68;43.24;101559.19;4112654;28;19926;-65
2023/06/01 09:10:40;;;;;;;;;;;;;;;21.73;42.82;101558.03;4112653;28;20362;-63
2023/06/01 09:12:51;;;;;;;;;;;;;;;21.77;42.15;101546.13;4114439;28;20296;-67
2023/06/01 09:15:06;;;;;;;;;;;;;;;21.75;43.53;101556.97;4111388;28;19926;-65
2023/06/01 09:17:12;;;;;;;;;;;;;;;21.86;43.54;101559.75;4132894;28;20407;-62
2023/06/01 09:19:14;;;;;;;;;;;;;;;21.94;43.63;101550.31;4116142;28;20058;-64
2023/06/01 09:21:15;;;;;;;;;;;;;;;22.01;43.57;101560.47;4111264;28;20426;-66
2023/06/01 09:23:24;;;;;;;;;;;;;;;22.04;42.53;101543.31;4113003;28;19971;-74
2023/06/01 09:25:27;;;;;;;;;;;;;;;22.07;43.07;101548.47;4097278;28;20350;-68
2023/06/01 09:27:29;;;;;;;;;;;;;;;22.12;42.86;101548.16;4110274;28;19933;-74
2023/06/01 09:29:31;;;;;;;;;;;;;;;22.17;44.10;101551.34;4108857;28;20049;-62
2023/06/01 09:31:37;;;;;;;;;;;;;;;22.22;43.75;101551.03;4110418;28;19931;-67
2023/06/01 09:33:58;;;;;;;;;;;;;;;22.28;43.57;101545.22;4112134;28;20043;-65
2023/06/01 09:36:00;;;;;;;;;;;;;;;22.31;41.98;101545.00;4110412;28;19926;-64
2023/06/01 09:38:05;;;;;;;;;;;;;;;22.36;42.16;101534.81;4117567;28;19930;-62
2023/06/01 09:40:20;;;;;;;;;;;;;;;22.38;42.34;101543.59;4107529;28;20016;-62
2023/06/01 09:42:31;;;;;;;;;;;;;;;22.38;42.64;101545.41;4101105;28;19927;-68
2023/06/01 09:44:34;;;;;;;;;;;;;;;22.42;42.68;101539.75;4097055;28;20356;-58
2023/06/01 09:46:46;;;;;;;;;;;;;;;22.48;43.21;101535.78;4111645;28;20410;-63
2023/06/01 09:48:49;;;;;;;;;;;;;;;22.58;42.54;101534.13;4103048;28;19927;-62
2023/06/01 09:50:51;;;;;;;;;;;;;;;22.62;42.90;101534.75;4125703;28;19948;-60
2023/06/01 09:52:57;;;;;;;;;;;;;;;22.63;42.55;101533.78;4108433;28;19926;-59
2023/06/01 09:55:05;;;;;;;;;;;;;;;22.67;42.58;101534.41;4099436;28;19927;-61
2023/06/01 09:57:07;;;;;;;;;;;;;;;22.70;42.42;101539.53;4109379;28;19926;-60
2023/06/01 09:59:14;;;;;;;;;;;;;;;22.68;42.51;101534.28;4112562;28;20005;-59
2023/06/01 10:01:15;;;;;;;;;;;;;;;22.65;42.57;101530.00;4100727;28;19970;-58
2023/06/01 10:03:18;;;;;;;;;;;;;;;22.61;42.85;101523.19;4096843;29;19934;-60
2023/06/01 10:05:20;;;;;;;;;;;;;;;22.56;42.70;101530.69;4096569;29;19926;-62
2023/06/01 10:07:22;;;;;;;;;;;;;;;22.52;43.15;101522.97;4095755;29;19927;-58
2023/06/01 10:09:26;;;;;;;;;;;;;;;22.48;43.40;101525.91;4105464;28;20414;-59
2023/06/01 10:11:27;;;;;;;;;;;;;;;22.46;43.50;101519.78;4116171;28;19958;-59
2023/06/01 10:13:31;;;;;;;;;;;;;;;22.45;43.17;101517.22;4117231;28;19949;-58
2023/06/01 10:15:33;;;;;;;;;;;;;;;22.41;43.65;101519.28;4112673;28;19926;-57
2023/06/01 10:17:36;;;;;;;;;;;;;;;22.40;43.89;101517.56;4111484;28;19945;-60
2023/06/01 10:19:40;;;;;;;;;;;;;;;22.39;44.22;101515.84;4112082;28;19941;-61
2023/06/01 10:21:42;;;;;;;;;;;;;;;22.38;44.03;101522.16;4112661;28;20392;-61
2023/06/01 10:23:44;;;;;;;;;;;;;;;22.38;44.13;101513.25;4117309;28;20387;-58
2023/06/01 10:25:47;;;;;;;;;;;;;;;22.38;43.65;101507.88;4124919;28;19930;-60
2023/06/01 10:27:54;;;;;;;;;;;;;;;22.36;43.90;101509.81;4111377;28;19926;-59
2023/06/01 10:29:56;;;;;;;;;;;;;;;22.37;43.77;101509.72;4112494;28;19930;-60
2023/06/01 10:31:57;;;;;;;;;;;;;;;22.36;43.92;101508.00;4112483;28;20284;-60